Time;durP1;ratioP1;P1;durP2;ratioP2;P2;SDS_P1;SDS_P2;PMS_P1;PMS_P2;Temp;Humidity;BMP_temperature;BMP_pressure;BME280_temperature;BME280_humidity;BME280_pressure;Samples;Min_cycle;Max_cycle;Signal;HPM_P1;HPM_P2
2021/04/14 00:01:37;;;;;;;10.38;6.03;;;;;;;;;;5043750;28;20028;-66
2021/04/14 00:04:04;;;;;;;13.02;5.07;;;;;;;;;;5046224;28;20076;-66
2021/04/14 00:06:29;;;;;;;8.52;5.32;;;;;;;;;;5045715;28;20113;-65
2021/04/14 00:08:54;;;;;;;13.48;5.55;;;;;;;;;;5046706;28;20163;-67
2021/04/14 00:11:20;;;;;;;10.05;5.95;;;;;;;;;;5047165;28;20445;-66
2021/04/14 00:13:45;;;;;;;9.45;5.53;;;;;;;;;;5045868;28;20173;-66
2021/04/14 00:16:12;;;;;;;8.73;5.47;;;;;;;;;;5045759;28;20047;-66
2021/04/14 00:18:37;;;;;;;8.10;5.57;;;;;;;;;;5046407;28;20119;-66
2021/04/14 00:21:03;;;;;;;9.45;5.45;;;;;;;;;;5046213;28;20025;-66
2021/04/14 00:23:28;;;;;;;11.65;5.50;;;;;;;;;;5045593;28;20063;-65
2021/04/14 00:25:53;;;;;;;9.45;5.90;;;;;;;;;;5045814;28;20052;-66
2021/04/14 00:28:21;;;;;;;9.95;5.15;;;;;;;;;;5045452;28;20047;-65
2021/04/14 00:30:47;;;;;;;10.50;5.30;;;;;;;;;;5046219;28;20048;-66
2021/04/14 00:33:12;;;;;;;9.68;5.45;;;;;;;;;;5046106;28;20020;-66
2021/04/14 00:35:38;;;;;;;7.97;5.45;;;;;;;;;;5046742;28;20036;-65
2021/04/14 00:38:03;;;;;;;10.18;5.53;;;;;;;;;;5045537;28;20904;-66
2021/04/14 00:40:30;;;;;;;9.35;5.57;;;;;;;;;;5045589;28;20130;-66
2021/04/14 00:42:56;;;;;;;8.52;5.43;;;;;;;;;;5045544;28;20032;-66
2021/04/14 00:45:22;;;;;;;9.68;5.05;;;;;;;;;;5045754;28;20044;-65
2021/04/14 00:47:47;;;;;;;14.38;5.72;;;;;;;;;;5046303;28;20024;-65
2021/04/14 00:50:15;;;;;;;8.65;5.70;;;;;;;;;;5045192;28;20040;-66
2021/04/14 00:52:40;;;;;;;12.68;6.25;;;;;;;;;;5046015;28;20037;-66
2021/04/14 00:55:07;;;;;;;10.30;6.38;;;;;;;;;;5045815;28;20527;-65
2021/04/14 00:57:32;;;;;;;10.98;7.05;;;;;;;;;;5045485;28;20104;-66
2021/04/14 00:59:57;;;;;;;11.88;6.68;;;;;;;;;;5045976;28;20115;-66
2021/04/14 01:02:22;;;;;;;11.02;6.50;;;;;;;;;;5045592;28;20480;-65
2021/04/14 01:04:48;;;;;;;10.80;6.68;;;;;;;;;;5044928;28;20127;-65
2021/04/14 01:07:13;;;;;;;14.52;8.00;;;;;;;;;;5045611;28;20044;-65
2021/04/14 01:09:39;;;;;;;20.67;7.97;;;;;;;;;;5045256;28;20082;-66
2021/04/14 01:12:04;;;;;;;15.57;7.28;;;;;;;;;;5045657;28;20112;-66
2021/04/14 01:14:29;;;;;;;16.63;8.02;;;;;;;;;;5044571;28;20126;-66
2021/04/14 01:16:55;;;;;;;16.00;8.10;;;;;;;;;;5045486;28;20025;-66
2021/04/14 01:19:20;;;;;;;13.57;7.97;;;;;;;;;;5045280;28;20132;-66
2021/04/14 01:21:45;;;;;;;11.48;7.43;;;;;;;;;;5045095;28;20036;-66
2021/04/14 01:24:13;;;;;;;14.57;7.45;;;;;;;;;;5045285;28;20040;-66
2021/04/14 01:26:39;;;;;;;13.07;7.30;;;;;;;;;;5045112;28;20037;-66
2021/04/14 01:29:05;;;;;;;13.55;7.15;;;;;;;;;;5045335;28;20040;-66
2021/04/14 01:31:33;;;;;;;15.57;7.18;;;;;;;;;;5045088;28;20017;-65
2021/04/14 01:34:05;;;;;;;13.55;8.05;;;;;;;;;;5044885;28;20040;-66
2021/04/14 01:36:30;;;;;;;14.65;8.32;;;;;;;;;;5045000;28;20413;-65
2021/04/14 01:38:56;;;;;;;14.43;7.55;;;;;;;;;;5045532;28;20048;-66
2021/04/14 01:41:21;;;;;;;15.20;7.25;;;;;;;;;;5044260;28;20032;-65
2021/04/14 01:43:47;;;;;;;17.42;6.82;;;;;;;;;;5044966;28;20475;-65
2021/04/14 01:46:12;;;;;;;10.68;6.45;;;;;;;;;;5044979;28;20037;-65
2021/04/14 01:48:37;;;;;;;12.55;5.85;;;;;;;;;;5045047;28;20456;-65
2021/04/14 01:51:03;;;;;;;16.10;5.90;;;;;;;;;;5045874;28;20037;-66
2021/04/14 01:53:28;;;;;;;14.25;6.97;;;;;;;;;;5044545;28;20090;-65
2021/04/14 01:55:53;;;;;;;9.25;5.70;;;;;;;;;;5044769;28;20031;-66
2021/04/14 01:58:19;;;;;;;13.30;5.80;;;;;;;;;;5044930;28;20044;-66
2021/04/14 02:00:48;;;;;;;12.43;6.05;;;;;;;;;;5044675;28;20542;-65
2021/04/14 02:03:13;;;;;;;8.57;5.53;;;;;;;;;;5044932;28;20021;-65
2021/04/14 02:05:39;;;;;;;9.02;5.75;;;;;;;;;;5045154;28;20044;-66
2021/04/14 02:08:04;;;;;;;15.63;5.93;;;;;;;;;;5045012;28;20108;-65
2021/04/14 02:10:31;;;;;;;12.70;5.47;;;;;;;;;;5044939;28;20009;-65
2021/04/14 02:12:57;;;;;;;11.73;5.57;;;;;;;;;;5044565;28;20059;-66
2021/04/14 02:15:25;;;;;;;10.82;5.47;;;;;;;;;;5045053;28;20797;-65
2021/04/14 02:17:50;;;;;;;8.45;5.55;;;;;;;;;;5045239;28;20021;-65
2021/04/14 02:20:16;;;;;;;10.85;5.70;;;;;;;;;;5044655;28;20814;-65
2021/04/14 02:22:41;;;;;;;10.73;6.35;;;;;;;;;;5044669;28;20041;-66
2021/04/14 02:25:08;;;;;;;8.68;5.60;;;;;;;;;;5045502;28;20035;-66
2021/04/14 02:27:33;;;;;;;9.02;5.25;;;;;;;;;;5048595;28;20017;-66
2021/04/14 02:29:59;;;;;;;11.68;5.47;;;;;;;;;;5049161;28;20489;-66
2021/04/14 02:32:24;;;;;;;10.80;5.22;;;;;;;;;;5047982;28;20965;-65
2021/04/14 02:34:50;;;;;;;10.88;5.78;;;;;;;;;;5047843;28;20037;-66
2021/04/14 02:37:15;;;;;;;11.95;5.10;;;;;;;;;;5048381;28;20388;-66
2021/04/14 02:39:40;;;;;;;7.60;4.60;;;;;;;;;;5047308;28;20111;-66
2021/04/14 02:42:06;;;;;;;10.88;5.57;;;;;;;;;;5048131;28;20037;-66
2021/04/14 02:44:31;;;;;;;11.57;5.60;;;;;;;;;;5047842;28;20041;-66
2021/04/14 02:46:56;;;;;;;12.32;5.50;;;;;;;;;;5047473;28;20009;-66
2021/04/14 02:49:24;;;;;;;15.10;4.72;;;;;;;;;;5048198;28;20037;-66
2021/04/14 02:51:49;;;;;;;11.60;5.15;;;;;;;;;;5048570;28;20024;-66
2021/04/14 02:54:14;;;;;;;9.63;4.85;;;;;;;;;;5046982;28;20403;-66
2021/04/14 02:56:40;;;;;;;10.60;4.43;;;;;;;;;;5046966;28;20037;-66
2021/04/14 02:59:05;;;;;;;9.65;4.65;;;;;;;;;;5047948;28;20033;-65
2021/04/14 03:01:30;;;;;;;10.30;5.47;;;;;;;;;;5048061;28;20040;-65
2021/04/14 03:03:56;;;;;;;8.57;4.43;;;;;;;;;;5048142;28;20462;-66
2021/04/14 03:06:21;;;;;;;10.75;4.45;;;;;;;;;;5047333;28;20107;-66
2021/04/14 03:08:47;;;;;;;10.88;4.68;;;;;;;;;;5047896;28;20021;-65
2021/04/14 03:11:12;;;;;;;10.73;4.22;;;;;;;;;;5047340;28;20052;-65
2021/04/14 03:13:37;;;;;;;9.30;5.53;;;;;;;;;;5047102;28;20037;-66
2021/04/14 03:16:03;;;;;;;10.60;4.55;;;;;;;;;;5047804;28;20458;-65
2021/04/14 03:18:28;;;;;;;9.77;4.50;;;;;;;;;;5046968;28;20072;-66
2021/04/14 03:20:54;;;;;;;13.23;4.65;;;;;;;;;;5047863;28;20124;-66
2021/04/14 03:23:19;;;;;;;7.43;4.32;;;;;;;;;;5047458;28;20016;-65
2021/04/14 03:25:44;;;;;;;10.52;4.60;;;;;;;;;;5047586;28;20040;-66
2021/04/14 03:28:12;;;;;;;10.50;4.63;;;;;;;;;;5046293;28;20029;-66
2021/04/14 03:30:37;;;;;;;10.77;4.60;;;;;;;;;;5047530;28;20017;-66
2021/04/14 03:33:03;;;;;;;8.63;4.40;;;;;;;;;;5045494;28;20052;-66
2021/04/14 03:35:29;;;;;;;8.27;4.60;;;;;;;;;;5047283;28;20378;-66
2021/04/14 03:37:54;;;;;;;9.18;4.28;;;;;;;;;;5046509;28;20016;-67
2021/04/14 03:40:20;;;;;;;7.25;4.50;;;;;;;;;;5046521;28;20413;-66
2021/04/14 03:42:45;;;;;;;9.60;4.30;;;;;;;;;;5046828;28;20033;-66
2021/04/14 03:45:15;;;;;;;8.90;4.25;;;;;;;;;;5047047;28;20025;-67
2021/04/14 03:47:41;;;;;;;9.43;4.20;;;;;;;;;;5046636;28;20504;-66
2021/04/14 03:50:08;;;;;;;8.27;4.07;;;;;;;;;;5046624;28;20116;-66
2021/04/14 03:52:33;;;;;;;6.65;4.25;;;;;;;;;;5047448;28;20082;-66
2021/04/14 03:54:59;;;;;;;9.55;4.00;;;;;;;;;;5046485;28;20041;-66
2021/04/14 03:57:24;;;;;;;11.85;4.10;;;;;;;;;;5046892;28;20108;-66
2021/04/14 03:59:49;;;;;;;9.32;4.50;;;;;;;;;;5046563;28;20025;-65
2021/04/14 04:02:15;;;;;;;6.55;4.05;;;;;;;;;;5046206;28;20044;-65
2021/04/14 04:04:40;;;;;;;7.57;4.25;;;;;;;;;;5047072;28;20053;-65
2021/04/14 04:07:05;;;;;;;9.43;4.55;;;;;;;;;;5045070;28;20020;-65
2021/04/14 04:09:30;;;;;;;12.52;4.68;;;;;;;;;;5046243;28;20033;-66
2021/04/14 04:11:56;;;;;;;11.48;4.80;;;;;;;;;;5046456;28;20036;-66
2021/04/14 04:14:21;;;;;;;10.88;5.07;;;;;;;;;;5046495;28;20028;-66
2021/04/14 04:16:47;;;;;;;10.25;4.68;;;;;;;;;;5046580;28;20059;-65
2021/04/14 04:19:12;;;;;;;8.20;4.57;;;;;;;;;;5046596;28;20065;-66
2021/04/14 04:21:37;;;;;;;11.95;5.15;;;;;;;;;;5045938;28;20021;-66
2021/04/14 04:24:03;;;;;;;7.05;4.43;;;;;;;;;;5045959;28;20069;-66
2021/04/14 04:26:28;;;;;;;9.45;4.30;;;;;;;;;;5046695;28;20397;-66
2021/04/14 04:28:53;;;;;;;8.80;4.47;;;;;;;;;;5046362;28;20066;-66
2021/04/14 04:31:19;;;;;;;12.50;4.47;;;;;;;;;;5045930;28;20047;-66
2021/04/14 04:33:44;;;;;;;6.88;4.18;;;;;;;;;;5045745;28;20076;-66
2021/04/14 04:36:09;;;;;;;8.93;4.55;;;;;;;;;;5046091;28;20016;-65
2021/04/14 04:38:35;;;;;;;7.80;4.32;;;;;;;;;;5046147;28;20033;-66
2021/04/14 04:41:00;;;;;;;7.47;4.18;;;;;;;;;;5045780;28;20033;-66
2021/04/14 04:43:26;;;;;;;8.82;4.57;;;;;;;;;;5045510;28;20108;-66
2021/04/14 04:45:51;;;;;;;8.80;4.72;;;;;;;;;;5045497;28;20111;-66
2021/04/14 04:48:17;;;;;;;10.65;4.57;;;;;;;;;;5045479;28;20039;-66
2021/04/14 04:50:42;;;;;;;14.07;4.82;;;;;;;;;;5046567;28;20412;-65
2021/04/14 04:53:13;;;;;;;8.48;5.25;;;;;;;;;;5045136;28;20032;-65
2021/04/14 04:55:41;;;;;;;9.85;4.80;;;;;;;;;;5045888;28;20068;-66
2021/04/14 04:58:06;;;;;;;12.13;5.35;;;;;;;;;;5045689;28;20056;-66
2021/04/14 05:00:32;;;;;;;7.55;4.93;;;;;;;;;;5045509;28;20072;-66
2021/04/14 05:02:57;;;;;;;7.53;4.97;;;;;;;;;;5045616;28;20496;-66
2021/04/14 05:05:24;;;;;;;9.88;4.88;;;;;;;;;;5045644;28;20131;-65
2021/04/14 05:07:49;;;;;;;10.60;4.75;;;;;;;;;;5045512;28;20102;-66
2021/04/14 05:10:15;;;;;;;14.85;5.15;;;;;;;;;;5045675;28;20813;-66
2021/04/14 05:12:40;;;;;;;8.50;4.45;;;;;;;;;;5045652;28;20048;-66
2021/04/14 05:15:06;;;;;;;8.85;4.55;;;;;;;;;;5045167;28;20056;-66
2021/04/14 05:17:32;;;;;;;9.35;4.78;;;;;;;;;;5046276;28;20474;-65
2021/04/14 05:19:57;;;;;;;10.68;5.88;;;;;;;;;;5045743;28;20025;-66
2021/04/14 05:22:24;;;;;;;9.13;4.45;;;;;;;;;;5045174;28;20760;-66
2021/04/14 05:24:49;;;;;;;6.93;4.05;;;;;;;;;;5044980;28;20094;-66
2021/04/14 05:27:15;;;;;;;8.60;4.50;;;;;;;;;;5044849;28;20013;-66
2021/04/14 05:29:41;;;;;;;9.15;4.93;;;;;;;;;;5045798;28;20699;-66
2021/04/14 05:32:06;;;;;;;11.50;4.28;;;;;;;;;;5045352;28;20029;-66
2021/04/14 05:34:31;;;;;;;8.63;4.15;;;;;;;;;;5045263;28;20052;-66
2021/04/14 05:36:57;;;;;;;12.07;4.32;;;;;;;;;;5044737;28;20469;-66
2021/04/14 05:39:22;;;;;;;9.43;4.15;;;;;;;;;;5044782;28;20045;-65
2021/04/14 05:41:47;;;;;;;9.18;4.50;;;;;;;;;;5045876;28;20021;-65
2021/04/14 05:44:12;;;;;;;9.48;4.10;;;;;;;;;;5045344;28;20071;-65
2021/04/14 05:46:38;;;;;;;8.07;4.35;;;;;;;;;;5044492;28;20083;-66
2021/04/14 05:49:03;;;;;;;12.75;5.80;;;;;;;;;;5045272;28;20017;-66
2021/04/14 05:51:29;;;;;;;8.82;4.63;;;;;;;;;;5045281;28;20029;-66
2021/04/14 05:53:54;;;;;;;9.35;4.75;;;;;;;;;;5045516;28;20037;-66
2021/04/14 05:56:21;;;;;;;9.32;4.57;;;;;;;;;;5045066;28;20420;-65
2021/04/14 05:58:46;;;;;;;8.88;4.80;;;;;;;;;;5044565;28;20515;-65
2021/04/14 06:01:13;;;;;;;8.63;4.80;;;;;;;;;;5048060;28;20075;-66
2021/04/14 06:03:39;;;;;;;14.70;4.50;;;;;;;;;;5048760;28;20051;-65
2021/04/14 06:06:04;;;;;;;7.35;4.45;;;;;;;;;;5049299;28;20045;-66
2021/04/14 06:08:29;;;;;;;7.93;4.25;;;;;;;;;;5048658;28;20033;-66
2021/04/14 06:10:55;;;;;;;8.95;4.13;;;;;;;;;;5049009;28;20017;-66
2021/04/14 06:13:21;;;;;;;7.25;3.60;;;;;;;;;;5048813;28;20423;-66
2021/04/14 06:15:46;;;;;;;8.82;4.20;;;;;;;;;;5048384;28;20044;-66
2021/04/14 06:18:11;;;;;;;5.55;3.78;;;;;;;;;;5049007;28;20020;-66
2021/04/14 06:20:37;;;;;;;9.63;3.90;;;;;;;;;;5048892;28;20044;-66
2021/04/14 06:23:04;;;;;;;10.25;3.85;;;;;;;;;;5049061;28;20111;-66
2021/04/14 06:25:35;;;;;;;7.85;4.07;;;;;;;;;;5058643;28;20030;-67
2021/04/14 06:30:26;;;;;;;9.07;4.68;;;;;;;;;;5046922;28;20041;-66
2021/04/14 06:32:52;;;;;;;6.63;3.85;;;;;;;;;;5048938;28;20051;-66
2021/04/14 06:35:18;;;;;;;9.15;4.70;;;;;;;;;;5048262;28;20082;-67
2021/04/14 06:37:43;;;;;;;7.35;4.35;;;;;;;;;;5048227;28;20039;-66
2021/04/14 06:43:02;;;;;;;13.93;6.65;;;;;;;;;;5048223;28;20037;-66
2021/04/14 06:45:30;;;;;;;13.73;7.97;;;;;;;;;;5034910;28;20079;-67
2021/04/14 06:48:22;;;;;;;9.98;7.13;;;;;;;;;;5048551;28;20072;-67
2021/04/14 06:51:02;;;;;;;10.38;6.82;;;;;;;;;;5018871;28;20045;-67
2021/04/14 06:53:46;;;;;;;11.63;8.00;;;;;;;;;;5047613;28;20422;-67
2021/04/14 06:56:15;;;;;;;13.70;9.13;;;;;;;;;;5048001;28;20389;-67
2021/04/14 06:58:45;;;;;;;13.38;9.50;;;;;;;;;;5047965;28;20041;-65
2021/04/14 07:01:12;;;;;;;13.82;9.25;;;;;;;;;;5032053;28;20365;-65
2021/04/14 07:03:48;;;;;;;14.15;9.07;;;;;;;;;;5056035;28;20147;-65
2021/04/14 07:06:16;;;;;;;15.05;9.43;;;;;;;;;;5053074;28;20042;-65
2021/04/14 07:08:44;;;;;;;13.23;10.00;;;;;;;;;;5048349;28;20040;-65
2021/04/14 07:11:16;;;;;;;22.80;11.63;;;;;;;;;;5047893;28;20031;-64
2021/04/14 07:13:44;;;;;;;14.30;10.52;;;;;;;;;;5046655;28;20592;-65
2021/04/14 07:16:19;;;;;;;15.85;10.77;;;;;;;;;;5045847;28;20477;-65
2021/04/14 07:18:57;;;;;;;15.35;11.32;;;;;;;;;;5047849;28;20076;-65
2021/04/14 07:21:30;;;;;;;13.82;10.48;;;;;;;;;;5032793;28;20500;-65
2021/04/14 07:24:01;;;;;;;17.50;11.82;;;;;;;;;;5047342;28;20049;-65
2021/04/14 07:27:05;;;;;;;16.17;11.90;;;;;;;;;;5047322;28;20033;-65
2021/04/14 07:29:33;;;;;;;14.02;11.05;;;;;;;;;;5002195;28;20477;-65
2021/04/14 07:32:37;;;;;;;15.23;10.95;;;;;;;;;;5004277;28;20205;-65
2021/04/14 07:35:10;;;;;;;15.73;11.93;;;;;;;;;;4989685;28;20053;-65
2021/04/14 07:37:44;;;;;;;13.75;10.68;;;;;;;;;;4998145;28;20078;-65
2021/04/14 07:40:17;;;;;;;15.18;11.30;;;;;;;;;;5022180;28;20053;-65
2021/04/14 07:42:43;;;;;;;14.02;11.57;;;;;;;;;;5049508;28;20045;-65
2021/04/14 07:45:08;;;;;;;17.63;11.02;;;;;;;;;;5048077;28;20587;-66
2021/04/14 07:47:34;;;;;;;14.80;11.45;;;;;;;;;;5054116;28;20111;-65
2021/04/14 07:49:59;;;;;;;15.75;11.63;;;;;;;;;;5058201;28;20028;-65
2021/04/14 07:52:27;;;;;;;15.32;11.10;;;;;;;;;;5049502;28;20028;-65
2021/04/14 07:54:52;;;;;;;17.05;10.93;;;;;;;;;;5048999;28;20400;-66
2021/04/14 07:57:26;;;;;;;18.67;11.55;;;;;;;;;;5049559;28;20025;-66
2021/04/14 07:59:51;;;;;;;15.30;11.10;;;;;;;;;;5049432;28;20025;-66
2021/04/14 08:02:27;;;;;;;17.77;11.20;;;;;;;;;;5049222;28;20082;-65
2021/04/14 08:05:03;;;;;;;16.50;11.25;;;;;;;;;;5045101;28;20072;-66
2021/04/14 08:07:34;;;;;;;19.63;12.75;;;;;;;;;;5043642;28;20036;-65
2021/04/14 08:10:05;;;;;;;17.58;11.68;;;;;;;;;;5045834;28;20017;-65
2021/04/14 08:12:31;;;;;;;16.38;11.80;;;;;;;;;;5046229;28;20039;-66
2021/04/14 08:15:08;;;;;;;12.93;10.98;;;;;;;;;;5046183;28;20021;-66
2021/04/14 08:17:33;;;;;;;14.25;11.90;;;;;;;;;;5046116;28;20433;-65
2021/04/14 08:20:00;;;;;;;17.60;12.60;;;;;;;;;;5046502;28;20112;-66
2021/04/14 08:22:26;;;;;;;15.75;11.98;;;;;;;;;;5045336;28;20175;-66
2021/04/14 08:24:54;;;;;;;15.75;11.00;;;;;;;;;;5046870;28;20524;-66
2021/04/14 08:27:26;;;;;;;16.75;12.23;;;;;;;;;;5041776;28;20032;-66
2021/04/14 08:30:05;;;;;;;15.18;11.63;;;;;;;;;;5056936;28;20036;-66
2021/04/14 08:32:39;;;;;;;14.07;11.68;;;;;;;;;;5060419;28;20499;-66
2021/04/14 08:35:11;;;;;;;18.85;12.57;;;;;;;;;;5064974;28;20020;-66
2021/04/14 08:37:36;;;;;;;13.85;11.68;;;;;;;;;;5056872;28;20083;-66
2021/04/14 08:40:17;;;;;;;14.32;11.40;;;;;;;;;;5045366;28;20045;-66
2021/04/14 08:42:43;;;;;;;15.13;11.55;;;;;;;;;;5045475;28;20021;-66
2021/04/14 08:45:10;;;;;;;15.40;11.50;;;;;;;;;;5044795;28;20036;-66
2021/04/14 08:47:37;;;;;;;14.10;11.63;;;;;;;;;;5044203;28;20021;-66
2021/04/14 08:50:02;;;;;;;15.43;11.75;;;;;;;;;;5044950;28;20029;-66
2021/04/14 08:52:28;;;;;;;13.73;10.52;;;;;;;;;;5044921;28;20476;-66
2021/04/14 08:54:53;;;;;;;12.05;10.23;;;;;;;;;;5043708;28;20049;-66
2021/04/14 08:57:19;;;;;;;12.45;11.05;;;;;;;;;;5044965;28;20025;-66
2021/04/14 08:59:44;;;;;;;15.13;11.05;;;;;;;;;;5044209;28;20103;-66
2021/04/14 09:02:11;;;;;;;16.65;10.68;;;;;;;;;;5045139;28;20021;-66
2021/04/14 09:04:41;;;;;;;14.23;11.13;;;;;;;;;;5045875;28;20114;-66
2021/04/14 09:07:07;;;;;;;14.13;11.30;;;;;;;;;;5032837;28;20547;-66
2021/04/14 09:09:41;;;;;;;16.52;11.00;;;;;;;;;;5044261;28;20043;-66
2021/04/14 09:12:08;;;;;;;13.55;10.88;;;;;;;;;;5044519;28;20037;-66
2021/04/14 09:14:34;;;;;;;15.27;11.75;;;;;;;;;;5045759;28;20033;-66
2021/04/14 09:17:02;;;;;;;14.57;11.57;;;;;;;;;;5045824;28;20032;-66
2021/04/14 09:19:32;;;;;;;13.65;11.18;;;;;;;;;;5043978;28;20032;-66
2021/04/14 09:22:03;;;;;;;14.82;10.88;;;;;;;;;;5045160;28;20025;-66
2021/04/14 09:24:32;;;;;;;16.02;12.10;;;;;;;;;;5044777;28;20041;-66
2021/04/14 09:26:58;;;;;;;12.50;10.65;;;;;;;;;;5044789;28;20030;-66
2021/04/14 09:29:32;;;;;;;14.10;9.98;;;;;;;;;;5045090;28;20027;-66
2021/04/14 09:32:06;;;;;;;11.85;10.18;;;;;;;;;;5044220;28;20029;-65
2021/04/14 09:34:37;;;;;;;13.63;11.38;;;;;;;;;;5045409;28;20380;-65
2021/04/14 09:37:23;;;;;;;14.80;10.07;;;;;;;;;;5048798;28;20029;-65
2021/04/14 09:39:50;;;;;;;17.75;10.70;;;;;;;;;;5049559;28;20052;-65
2021/04/14 09:42:22;;;;;;;14.45;10.88;;;;;;;;;;5047276;28;20033;-65
2021/04/14 09:44:48;;;;;;;13.82;10.90;;;;;;;;;;5048825;28;20072;-65
2021/04/14 09:47:18;;;;;;;31.23;14.48;;;;;;;;;;5048825;28;20055;-65
2021/04/14 09:49:45;;;;;;;13.02;9.07;;;;;;;;;;5048482;28;20350;-65
2021/04/14 09:52:30;;;;;;;13.25;9.35;;;;;;;;;;5047956;28;20037;-66
2021/04/14 09:54:58;;;;;;;15.75;9.07;;;;;;;;;;5049230;28;20064;-66
2021/04/14 09:57:25;;;;;;;19.33;10.10;;;;;;;;;;5048078;28;20451;-66
2021/04/14 09:59:51;;;;;;;14.45;9.00;;;;;;;;;;5048271;28;20446;-66
2021/04/14 10:02:18;;;;;;;24.52;11.57;;;;;;;;;;5047259;28;20025;-65
2021/04/14 10:04:43;;;;;;;19.05;9.85;;;;;;;;;;5053078;28;20073;-66
2021/04/14 10:07:17;;;;;;;11.88;8.10;;;;;;;;;;5060331;28;20045;-66
2021/04/14 10:09:43;;;;;;;12.13;7.63;;;;;;;;;;5053887;28;20064;-66
2021/04/14 10:12:13;;;;;;;12.50;9.10;;;;;;;;;;5054475;28;20118;-66
2021/04/14 10:14:43;;;;;;;11.02;8.27;;;;;;;;;;5049910;28;20028;-66
2021/04/14 10:17:09;;;;;;;15.20;9.32;;;;;;;;;;5031816;28;20064;-66
2021/04/14 10:19:35;;;;;;;13.73;9.02;;;;;;;;;;5049560;28;20036;-66
2021/04/14 10:22:05;;;;;;;14.55;8.70;;;;;;;;;;5052559;28;20025;-66
2021/04/14 10:24:30;;;;;;;11.73;8.98;;;;;;;;;;5053410;28;20048;-65
2021/04/14 10:26:56;;;;;;;18.13;9.40;;;;;;;;;;5063283;28;20037;-65
2021/04/14 10:29:27;;;;;;;14.65;9.30;;;;;;;;;;5068158;28;20028;-66
2021/04/14 10:31:55;;;;;;;12.05;9.18;;;;;;;;;;5041547;28;20670;-66
2021/04/14 10:34:34;;;;;;;10.57;8.65;;;;;;;;;;5045122;28;20393;-65
2021/04/14 10:37:12;;;;;;;13.25;8.98;;;;;;;;;;5037237;28;20159;-65
2021/04/14 10:39:37;;;;;;;14.82;10.10;;;;;;;;;;5042410;28;20056;-65
2021/04/14 10:42:14;;;;;;;15.93;10.02;;;;;;;;;;5042114;28;20122;-65
2021/04/14 10:44:40;;;;;;;14.73;10.30;;;;;;;;;;5043804;28;20124;-65
2021/04/14 10:47:07;;;;;;;16.33;9.95;;;;;;;;;;5043704;28;20684;-65
2021/04/14 10:49:33;;;;;;;16.80;10.75;;;;;;;;;;5040431;28;20563;-64
2021/04/14 10:52:08;;;;;;;17.70;12.15;;;;;;;;;;5042410;28;20024;-65
2021/04/14 10:54:34;;;;;;;;;;;;;;;;;;5042038;28;20469;-65
2021/04/14 10:57:08;;;;;;;23.35;11.70;;;;;;;;;;5041076;28;19916;-64
2021/04/14 10:59:34;;;;;;;17.58;12.13;;;;;;;;;;5042517;28;20037;-65
2021/04/14 11:02:00;;;;;;;19.45;13.20;;;;;;;;;;5037400;28;20036;-64
2021/04/14 11:04:28;;;;;;;19.55;12.82;;;;;;;;;;5040826;28;20049;-65
2021/04/14 11:06:57;;;;;;;18.70;13.10;;;;;;;;;;5041197;28;20027;-67
2021/04/14 11:09:23;;;;;;;20.30;12.95;;;;;;;;;;5039984;28;20061;-66
2021/04/14 11:11:48;;;;;;;19.23;13.05;;;;;;;;;;5037063;28;20144;-68
2021/04/14 11:14:16;;;;;;;30.30;17.02;;;;;;;;;;5036899;28;20385;-67
2021/04/14 11:16:43;;;;;;;19.02;13.80;;;;;;;;;;5040876;28;20477;-67
2021/04/14 11:19:11;;;;;;;18.40;13.95;;;;;;;;;;5039230;28;20492;-67
2021/04/14 11:21:37;;;;;;;17.58;13.05;;;;;;;;;;5040785;28;20036;-67
2021/04/14 11:24:04;;;;;;;21.02;13.15;;;;;;;;;;5041379;28;20029;-67
2021/04/14 11:26:29;;;;;;;18.45;12.15;;;;;;;;;;5040826;28;20036;-67
2021/04/14 11:28:55;;;;;;;20.67;12.55;;;;;;;;;;5040584;28;20021;-67
2021/04/14 11:31:27;;;;;;;19.02;13.63;;;;;;;;;;5039709;28;20055;-67
2021/04/14 11:33:53;;;;;;;20.83;14.35;;;;;;;;;;5039910;28;20037;-67
2021/04/14 11:36:24;;;;;;;19.42;12.57;;;;;;;;;;5040075;28;20628;-67
2021/04/14 11:38:57;;;;;;;20.35;12.30;;;;;;;;;;5039815;28;20088;-67
2021/04/14 11:41:28;;;;;;;19.90;12.40;;;;;;;;;;5040486;28;20037;-67
2021/04/14 11:43:53;;;;;;;17.67;12.52;;;;;;;;;;5040221;28;20071;-67
2021/04/14 11:46:27;;;;;;;14.70;11.00;;;;;;;;;;5041499;28;20033;-67
2021/04/14 11:49:18;;;;;;;16.92;10.68;;;;;;;;;;5041926;28;20114;-67
2021/04/14 11:51:45;;;;;;;19.70;11.57;;;;;;;;;;5042672;28;20446;-67
2021/04/14 11:54:16;;;;;;;18.20;11.13;;;;;;;;;;5041472;28;20317;-67
2021/04/14 11:56:45;;;;;;;19.40;12.88;;;;;;;;;;5040413;28;20031;-67
2021/04/14 11:59:24;;;;;;;17.13;10.68;;;;;;;;;;5040215;28;20440;-67
2021/04/14 12:01:54;;;;;;;21.02;12.75;;;;;;;;;;5039732;28;20417;-67
2021/04/14 12:04:20;;;;;;;17.25;10.30;;;;;;;;;;5040371;28;20033;-66
2021/04/14 12:06:45;;;;;;;16.63;12.05;;;;;;;;;;5047709;28;20465;-68
2021/04/14 12:09:11;;;;;;;18.17;10.80;;;;;;;;;;5047266;28;20029;-67
2021/04/14 12:11:36;;;;;;;21.13;11.57;;;;;;;;;;5042755;28;20033;-67
2021/04/14 12:14:02;;;;;;;15.15;10.55;;;;;;;;;;5040388;28;20420;-67
2021/04/14 12:16:27;;;;;;;15.50;11.18;;;;;;;;;;5046211;28;20126;-67
2021/04/14 12:18:52;;;;;;;16.30;10.57;;;;;;;;;;5041613;28;20527;-67
2021/04/14 12:21:18;;;;;;;19.58;11.07;;;;;;;;;;5049745;28;20099;-67
2021/04/14 12:23:43;;;;;;;13.52;10.00;;;;;;;;;;5044363;28;20032;-67
2021/04/14 12:26:09;;;;;;;17.15;10.52;;;;;;;;;;5050371;28;20151;-67
2021/04/14 12:28:34;;;;;;;14.68;10.25;;;;;;;;;;5039187;28;20097;-67
2021/04/14 12:31:00;;;;;;;13.02;9.45;;;;;;;;;;5039551;28;20029;-67
2021/04/14 12:33:26;;;;;;;12.02;7.28;;;;;;;;;;5039193;28;20393;-67
2021/04/14 12:35:52;;;;;;;12.90;7.50;;;;;;;;;;5040695;28;20091;-67
2021/04/14 12:38:17;;;;;;;9.75;6.82;;;;;;;;;;5038874;28;20029;-67
2021/04/14 12:40:42;;;;;;;9.48;6.55;;;;;;;;;;5039781;28;20392;-66
2021/04/14 12:43:08;;;;;;;9.18;6.30;;;;;;;;;;5038336;28;20080;-67
2021/04/14 12:45:52;;;;;;;14.65;7.05;;;;;;;;;;5039666;28;20393;-67
2021/04/14 12:48:21;;;;;;;15.02;7.47;;;;;;;;;;5032255;28;20036;-67
2021/04/14 12:50:56;;;;;;;12.40;6.80;;;;;;;;;;5039571;28;20041;-67
2021/04/14 12:53:21;;;;;;;9.90;7.30;;;;;;;;;;5038830;28;20116;-67
2021/04/14 12:55:48;;;;;;;13.70;8.27;;;;;;;;;;5038837;28;20980;-67
2021/04/14 12:58:21;;;;;;;11.63;8.32;;;;;;;;;;5038533;28;20021;-67
2021/04/14 13:00:47;;;;;;;12.38;8.25;;;;;;;;;;5044032;28;20037;-67
2021/04/14 13:03:21;;;;;;;14.63;8.32;;;;;;;;;;5037895;28;20041;-66
2021/04/14 13:05:48;;;;;;;17.42;8.85;;;;;;;;;;5039100;28;20045;-66
2021/04/14 13:08:15;;;;;;;15.80;9.43;;;;;;;;;;5039433;28;20029;-67
2021/04/14 13:10:41;;;;;;;11.45;8.43;;;;;;;;;;5038947;28;20020;-67
2021/04/14 13:13:06;;;;;;;13.57;8.80;;;;;;;;;;5039436;28;20436;-67
2021/04/14 13:15:36;;;;;;;14.27;9.40;;;;;;;;;;5039054;28;20036;-67
2021/04/14 13:18:02;;;;;;;14.25;9.77;;;;;;;;;;5036715;28;20032;-67
2021/04/14 13:20:27;;;;;;;13.38;9.18;;;;;;;;;;5042448;28;20257;-67
2021/04/14 13:23:05;;;;;;;15.80;10.57;;;;;;;;;;5039393;28;20375;-67
2021/04/14 13:25:30;;;;;;;13.48;8.57;;;;;;;;;;5043470;28;20033;-66
2021/04/14 13:28:08;;;;;;;16.00;9.10;;;;;;;;;;5047681;28;20032;-67
2021/04/14 13:30:36;;;;;;;16.63;10.25;;;;;;;;;;5044293;28;20027;-67
2021/04/14 13:33:05;;;;;;;16.15;9.20;;;;;;;;;;5039080;28;20037;-67
2021/04/14 13:35:39;;;;;;;13.90;10.02;;;;;;;;;;5038753;28;20090;-66
2021/04/14 13:38:22;;;;;;;12.05;9.05;;;;;;;;;;5030167;28;20533;-67
2021/04/14 13:40:51;;;;;;;14.15;8.95;;;;;;;;;;5038369;28;20049;-67
2021/04/14 13:43:21;;;;;;;12.23;7.55;;;;;;;;;;5038894;28;20033;-67
2021/04/14 13:45:50;;;;;;;12.18;7.97;;;;;;;;;;5036230;28;20059;-67
2021/04/14 13:48:21;;;;;;;14.40;8.70;;;;;;;;;;5038336;28;20111;-67
2021/04/14 13:50:52;;;;;;;13.55;8.73;;;;;;;;;;5038807;28;20672;-67
2021/04/14 13:53:19;;;;;;;12.15;8.07;;;;;;;;;;5038106;28;20561;-67
2021/04/14 13:55:44;;;;;;;11.90;8.25;;;;;;;;;;5037810;28;20350;-67
2021/04/14 13:58:35;;;;;;;13.55;7.85;;;;;;;;;;5037919;28;20025;-66
2021/04/14 14:01:03;;;;;;;11.82;7.35;;;;;;;;;;5007831;28;20826;-67
2021/04/14 14:03:29;;;;;;;16.35;7.50;;;;;;;;;;5038064;28;20025;-67
2021/04/14 14:05:56;;;;;;;11.07;8.35;;;;;;;;;;5038316;28;20076;-67
2021/04/14 14:08:23;;;;;;;15.75;9.73;;;;;;;;;;5037790;28;20025;-66
2021/04/14 14:10:56;;;;;;;13.15;8.20;;;;;;;;;;5037844;28;20040;-67
2021/04/14 14:13:26;;;;;;;10.73;7.78;;;;;;;;;;5038281;28;20043;-67
2021/04/14 14:15:54;;;;;;;16.67;9.25;;;;;;;;;;5037927;28;20029;-66
2021/04/14 14:18:20;;;;;;;14.52;9.43;;;;;;;;;;5038030;28;20683;-67
2021/04/14 14:20:45;;;;;;;13.85;9.65;;;;;;;;;;5039389;28;20071;-67
2021/04/14 14:23:18;;;;;;;14.27;9.73;;;;;;;;;;5042207;28;20106;-67
2021/04/14 14:25:44;;;;;;;16.15;9.40;;;;;;;;;;5041101;28;20041;-68
2021/04/14 14:28:09;;;;;;;13.02;9.02;;;;;;;;;;5041199;28;20024;-67
2021/04/14 14:30:34;;;;;;;15.32;10.20;;;;;;;;;;5041439;28;20032;-67
2021/04/14 14:33:00;;;;;;;14.18;9.40;;;;;;;;;;5041817;28;20029;-66
2021/04/14 14:35:27;;;;;;;13.38;8.32;;;;;;;;;;5043203;28;20013;-67
2021/04/14 14:37:58;;;;;;;13.90;8.88;;;;;;;;;;5043078;28;20036;-67